createdAt,value
2022-11-20T00:01:22.987Z,14.00
2022-11-20T00:03:52.892Z,14.97
2022-11-20T00:06:21.294Z,11.90
2022-11-20T00:08:49.602Z,13.93
2022-11-20T00:11:19.420Z,21.17
2022-11-20T00:13:48.562Z,11.53
2022-11-20T00:16:18.860Z,15.93
2022-11-20T00:18:46.946Z,13.57
2022-11-20T00:21:20.219Z,10.70
2022-11-20T00:23:50.489Z,16.00
2022-11-20T00:26:20.143Z,13.00
2022-11-20T00:28:55.852Z,11.60
2022-11-20T00:31:23.539Z,12.57
2022-11-20T00:33:51.124Z,14.33
2022-11-20T00:36:23.064Z,14.27
2022-11-20T00:41:21.403Z,11.60
2022-11-20T00:43:49.314Z,16.37
2022-11-20T00:46:19.175Z,14.23
2022-11-20T00:48:46.919Z,14.97
2022-11-20T00:51:16.560Z,11.93
2022-11-20T00:53:44.172Z,18.90
2022-11-20T00:56:13.764Z,13.70
2022-11-20T00:58:43.951Z,12.10
2022-11-20T01:01:23.035Z,12.73
2022-11-20T01:03:51.884Z,16.67
2022-11-20T01:06:24.992Z,13.23
2022-11-20T01:08:55.179Z,16.10
2022-11-20T01:11:25.816Z,12.73
2022-11-20T01:13:54.710Z,15.37
2022-11-20T01:16:33.202Z,11.77
2022-11-20T01:19:03.241Z,13.23
2022-11-20T01:21:39.085Z,18.10
2022-11-20T01:24:08.831Z,17.03
2022-11-20T01:26:37.823Z,11.83
2022-11-20T01:29:07.347Z,12.73
2022-11-20T01:31:37.533Z,12.63
2022-11-20T01:34:13.516Z,11.50
2022-11-20T01:36:42.075Z,11.33
2022-11-20T01:39:18.009Z,14.40
2022-11-20T01:42:09.422Z,16.63
2022-11-20T01:45:28.015Z,11.77
2022-11-20T01:47:55.539Z,11.67
2022-11-20T01:50:27.113Z,10.00
2022-11-20T01:53:03.024Z,10.70
2022-11-20T01:55:37.975Z,13.70
2022-11-20T01:58:06.031Z,12.53
2022-11-20T02:00:33.401Z,12.63
2022-11-20T02:03:21.063Z,13.00
2022-11-20T02:06:28.539Z,15.33
2022-11-20T02:08:56.099Z,12.70
2022-11-20T02:11:26.747Z,10.70
2022-11-20T02:13:55.264Z,16.40
2022-11-20T02:16:29.621Z,11.87
2022-11-20T02:18:59.617Z,16.23
2022-11-20T02:22:28.839Z,12.87
2022-11-20T02:24:57.104Z,13.67
2022-11-20T02:27:24.439Z,19.53
2022-11-20T02:30:04.321Z,13.60
2022-11-20T02:32:34.258Z,15.63
2022-11-20T02:35:32.369Z,11.97
2022-11-20T02:38:02.840Z,12.57
2022-11-20T02:40:30.616Z,16.33
2022-11-20T02:42:58.517Z,15.23
2022-11-20T02:45:26.269Z,13.60
2022-11-20T02:47:53.691Z,14.07
2022-11-20T02:50:21.705Z,16.20
2022-11-20T02:52:49.044Z,14.27
2022-11-20T02:55:16.522Z,15.47
2022-11-20T02:57:43.933Z,17.70
2022-11-20T03:00:12.136Z,14.20
2022-11-20T03:02:39.468Z,15.47
2022-11-20T03:05:07.094Z,14.13
2022-11-20T03:07:34.573Z,13.57
2022-11-20T03:10:02.066Z,12.23
2022-11-20T03:12:29.631Z,13.60
2022-11-20T03:14:57.198Z,13.23
2022-11-20T03:17:24.589Z,11.97
2022-11-20T03:19:51.971Z,15.13
2022-11-20T03:22:19.298Z,14.10
2022-11-20T03:24:47.133Z,13.87
2022-11-20T03:27:14.636Z,10.47
2022-11-20T03:29:42.049Z,14.40
2022-11-20T03:32:09.531Z,14.60
2022-11-20T03:34:37.274Z,16.53
2022-11-20T03:37:04.615Z,12.87
2022-11-20T03:39:32.003Z,12.70
2022-11-20T03:41:59.355Z,12.83
2022-11-20T03:44:26.732Z,12.87
2022-11-20T03:46:54.102Z,13.23
2022-11-20T03:49:21.791Z,10.73
2022-11-20T03:51:49.434Z,15.03
2022-11-20T03:54:16.735Z,13.33
2022-11-20T03:56:44.071Z,9.80
2022-11-20T03:59:12.073Z,16.10
2022-11-20T04:01:39.554Z,13.03
2022-11-20T04:04:06.982Z,15.10
2022-11-20T04:06:38.850Z,11.83
2022-11-20T04:09:06.882Z,10.73
2022-11-20T04:11:36.635Z,15.67
2022-11-20T04:14:07.143Z,12.43
2022-11-20T04:16:36.876Z,15.07
2022-11-20T04:19:07.185Z,19.23
2022-11-20T04:21:34.845Z,18.57
2022-11-20T04:24:02.801Z,17.03
2022-11-20T04:26:31.367Z,13.13
2022-11-20T04:28:59.378Z,12.47
2022-11-20T04:31:29.288Z,11.10
2022-11-20T04:33:59.877Z,13.67
2022-11-20T04:36:29.134Z,14.40
2022-11-20T04:38:58.732Z,13.00
2022-11-20T04:41:29.538Z,11.17
2022-11-20T04:44:04.299Z,13.33
2022-11-20T04:46:34.424Z,13.93
2022-11-20T04:49:02.155Z,10.73
2022-11-20T04:51:29.803Z,12.70
2022-11-20T04:53:57.154Z,12.10
2022-11-20T04:56:25.662Z,11.20
2022-11-20T04:58:52.989Z,14.07
2022-11-20T05:01:23.536Z,11.50
2022-11-20T05:03:51.150Z,9.70
2022-11-20T05:06:20.605Z,12.80
2022-11-20T05:08:48.312Z,13.77
2022-11-20T05:11:19.350Z,10.57
2022-11-20T05:13:46.750Z,10.07
2022-11-20T05:16:16.798Z,12.03
2022-11-20T05:18:44.575Z,12.47
2022-11-20T05:21:13.091Z,12.63
2022-11-20T05:23:40.946Z,10.60
2022-11-20T05:26:12.874Z,13.90
2022-11-20T05:31:12.797Z,8.50
2022-11-20T05:33:45.014Z,13.40
2022-11-20T05:36:14.385Z,8.80
2022-11-20T05:38:42.852Z,13.10
2022-11-20T05:41:15.978Z,9.57
2022-11-20T05:43:45.369Z,15.03
2022-11-20T05:46:15.283Z,10.50
2022-11-20T05:48:44.464Z,15.20
2022-11-20T05:51:14.528Z,12.13
2022-11-20T05:53:47.872Z,13.10
2022-11-20T05:56:18.699Z,12.87
2022-11-20T05:58:46.791Z,10.00
2022-11-20T06:01:21.339Z,10.53
2022-11-20T06:03:51.433Z,11.37
2022-11-20T06:06:20.534Z,9.87
2022-11-20T06:08:48.561Z,11.03
2022-11-20T06:11:17.223Z,15.63
2022-11-20T06:13:45.294Z,11.57
2022-11-20T06:16:14.190Z,12.00
2022-11-20T06:18:41.548Z,12.97
2022-11-20T06:21:11.577Z,15.70
2022-11-20T06:23:38.936Z,12.87
2022-11-20T06:26:08.903Z,14.23
2022-11-20T06:28:36.860Z,10.53
2022-11-20T06:31:04.952Z,11.97
2022-11-20T06:33:32.468Z,13.90
2022-11-20T06:36:05.680Z,13.80
2022-11-20T06:38:33.676Z,13.63
2022-11-20T06:41:00.997Z,11.97
2022-11-20T06:43:30.590Z,11.17
2022-11-20T06:45:59.162Z,11.60
2022-11-20T06:48:30.254Z,12.57
2022-11-20T06:50:58.429Z,12.20
2022-11-20T06:53:26.321Z,12.07
2022-11-20T06:55:56.523Z,13.20
2022-11-20T06:58:23.834Z,12.43
2022-11-20T07:00:51.231Z,11.00
2022-11-20T07:03:18.584Z,13.57
2022-11-20T07:05:47.003Z,13.63
2022-11-20T07:08:14.288Z,12.17
2022-11-20T07:10:41.663Z,13.33
2022-11-20T07:13:09.208Z,11.20
2022-11-20T07:15:36.816Z,13.17
2022-11-20T07:18:04.240Z,10.07
2022-11-20T07:20:31.636Z,14.40
2022-11-20T07:22:59.707Z,13.47
2022-11-20T07:25:28.621Z,12.17
2022-11-20T07:27:59.615Z,13.17
2022-11-20T07:30:30.778Z,11.15
2022-11-20T07:32:58.328Z,17.52
2022-11-20T07:35:26.358Z,15.80
2022-11-20T07:37:53.706Z,15.13
2022-11-20T07:40:21.365Z,15.70
2022-11-20T07:42:53.853Z,15.30
2022-11-20T07:45:23.165Z,15.27
2022-11-20T07:47:50.843Z,14.77
2022-11-20T07:50:18.772Z,11.53
2022-11-20T07:52:46.186Z,10.23
2022-11-20T07:55:13.859Z,11.57
2022-11-20T07:57:41.264Z,14.60
2022-11-20T08:00:10.993Z,14.07
2022-11-20T08:02:41.955Z,15.47
2022-11-20T08:05:10.794Z,18.33
2022-11-20T08:07:43.255Z,15.30
2022-11-20T08:10:13.749Z,21.23
2022-11-20T08:13:10.615Z,15.97
2022-11-20T08:15:40.179Z,13.97
2022-11-20T08:20:57.565Z,15.93
2022-11-20T08:23:25.178Z,13.23
2022-11-20T08:25:52.579Z,13.50
2022-11-20T08:28:22.021Z,17.17
2022-11-20T08:30:51.302Z,17.57
2022-11-20T08:33:19.613Z,15.10
2022-11-20T08:35:47.051Z,16.50
2022-11-20T08:38:14.483Z,15.63
2022-11-20T08:40:41.857Z,11.83
2022-11-20T08:43:09.178Z,14.30
2022-11-20T08:45:36.543Z,18.07
2022-11-20T08:48:04.621Z,15.47
2022-11-20T08:50:34.015Z,15.13
2022-11-20T08:53:05.614Z,16.50
2022-11-20T08:55:33.351Z,17.98
2022-11-20T08:58:05.189Z,15.73
2022-11-20T09:00:33.441Z,18.05
2022-11-20T09:03:02.288Z,18.60
2022-11-20T09:05:30.157Z,17.23
2022-11-20T09:07:58.478Z,14.17
2022-11-20T09:10:26.520Z,14.33
2022-11-20T09:12:54.743Z,13.63
2022-11-20T09:15:22.434Z,14.70
2022-11-20T09:17:59.233Z,14.87
2022-11-20T09:20:27.972Z,15.37
2022-11-20T09:22:55.526Z,17.20
2022-11-20T09:25:23.165Z,15.73
2022-11-20T09:27:56.838Z,16.10
2022-11-20T09:30:24.301Z,12.03
2022-11-20T09:32:51.806Z,16.47
2022-11-20T09:35:19.271Z,18.53
2022-11-20T09:37:46.777Z,15.90
2022-11-20T09:40:24.379Z,18.60
2022-11-20T09:43:35.227Z,11.10
2022-11-20T09:46:22.175Z,14.10
2022-11-20T09:49:10.906Z,15.90
2022-11-20T09:52:19.744Z,14.13
2022-11-20T09:54:47.490Z,13.53
2022-11-20T09:57:26.354Z,13.00
2022-11-20T10:00:00.466Z,14.60
2022-11-20T10:02:40.380Z,11.90
2022-11-20T10:05:23.850Z,10.57
2022-11-20T10:08:00.879Z,12.20
2022-11-20T10:10:54.720Z,14.30
2022-11-20T10:14:07.499Z,11.90
2022-11-20T10:20:02.456Z,10.93
2022-11-20T10:23:13.111Z,12.13
2022-11-20T10:26:05.322Z,12.03
2022-11-20T10:28:58.572Z,14.00
2022-11-20T10:31:40.366Z,9.53
2022-11-20T10:34:25.029Z,12.73
2022-11-20T10:37:17.600Z,10.20
2022-11-20T10:40:25.982Z,9.97
2022-11-20T10:43:24.699Z,10.20
2022-11-20T10:46:03.030Z,10.37
2022-11-20T10:48:32.674Z,11.23
2022-11-20T10:51:57.184Z,9.67
2022-11-20T10:57:58.874Z,8.43
2022-11-20T11:00:26.235Z,8.93
2022-11-20T11:02:54.948Z,8.30
2022-11-20T11:05:39.762Z,10.33
2022-11-20T11:08:15.071Z,9.40
2022-11-20T11:11:19.252Z,9.77
2022-11-20T11:13:46.908Z,8.50
2022-11-20T11:16:25.911Z,9.47
2022-11-20T11:19:05.188Z,8.07
2022-11-20T11:21:32.648Z,7.60
2022-11-20T11:24:34.808Z,8.50
2022-11-20T11:27:16.471Z,6.70
2022-11-20T11:29:45.496Z,6.47
2022-11-20T11:32:15.478Z,7.27
2022-11-20T11:34:42.902Z,6.43
2022-11-20T11:37:19.755Z,5.43
2022-11-20T11:39:55.046Z,5.10
2022-11-20T11:42:26.985Z,2.83
2022-11-20T11:45:07.755Z,5.50
2022-11-20T11:47:52.517Z,6.13
2022-11-20T11:50:22.964Z,4.27
2022-11-20T11:53:29.622Z,3.97
2022-11-20T11:56:13.575Z,3.93
2022-11-20T11:58:56.283Z,5.30
2022-11-20T12:01:58.843Z,4.50
2022-11-20T12:07:46.769Z,4.30
2022-11-20T12:10:38.411Z,4.40
2022-11-20T12:13:31.218Z,5.10
2022-11-20T12:15:59.609Z,5.47
2022-11-20T12:18:27.045Z,3.17
2022-11-20T12:21:21.823Z,4.53
2022-11-20T12:24:15.235Z,3.93
2022-11-20T12:27:30.458Z,5.87
2022-11-20T12:30:18.535Z,4.03
2022-11-20T12:33:04.238Z,5.17
2022-11-20T12:36:18.845Z,5.63
2022-11-20T12:39:12.468Z,3.97
2022-11-20T12:42:40.506Z,4.47
2022-11-20T12:45:40.220Z,4.23
2022-11-20T12:48:47.472Z,3.13
2022-11-20T12:52:01.763Z,4.13
2022-11-20T13:23:12.737Z,2.93
2022-11-20T13:25:41.238Z,4.30
2022-11-20T13:28:30.101Z,3.63
2022-11-20T13:30:59.058Z,3.13
2022-11-20T13:33:35.685Z,3.83
2022-11-20T13:36:08.001Z,3.33
2022-11-20T13:38:47.729Z,3.93
2022-11-20T13:41:45.099Z,3.00
2022-11-20T13:44:16.499Z,2.87
2022-11-20T13:46:46.258Z,4.72
2022-11-20T13:49:49.544Z,5.43
2022-11-20T13:52:40.678Z,3.60
2022-11-20T13:55:24.339Z,3.80
2022-11-20T13:58:32.999Z,4.10
2022-11-20T14:01:22.040Z,3.53
2022-11-20T14:04:06.687Z,3.90
2022-11-20T14:06:44.217Z,4.97
2022-11-20T14:09:14.234Z,4.33
2022-11-20T14:11:48.995Z,4.70
2022-11-20T14:14:25.540Z,4.57
2022-11-20T14:16:54.496Z,3.63
2022-11-20T14:19:28.953Z,6.30
2022-11-20T14:22:18.139Z,3.50
2022-11-20T14:24:46.161Z,5.17
2022-11-20T14:27:16.800Z,4.70
2022-11-20T14:29:45.736Z,3.50
2022-11-20T14:32:15.549Z,5.20
2022-11-20T14:34:46.084Z,5.63
2022-11-20T14:37:19.336Z,4.43
2022-11-20T14:39:56.980Z,4.63
2022-11-20T14:42:26.843Z,4.67
2022-11-20T14:44:57.527Z,5.77
2022-11-20T14:47:28.918Z,4.10
2022-11-20T14:49:57.671Z,4.38
2022-11-20T14:52:27.198Z,5.10
2022-11-20T14:54:56.896Z,5.23
2022-11-20T14:57:35.721Z,5.80
2022-11-20T15:00:27.847Z,4.87
2022-11-20T15:02:55.706Z,6.80
2022-11-20T15:05:26.416Z,4.97
2022-11-20T15:08:10.125Z,7.25
2022-11-20T15:10:39.347Z,6.30
2022-11-20T15:13:13.334Z,6.00
2022-11-20T15:15:52.554Z,8.10
2022-11-20T15:18:23.735Z,5.97
2022-11-20T15:20:52.301Z,9.93
2022-11-20T15:23:20.254Z,5.27
2022-11-20T15:25:49.443Z,5.17
2022-11-20T15:28:32.931Z,5.53
2022-11-20T15:31:00.660Z,8.43
2022-11-20T15:33:28.004Z,7.67
2022-11-20T15:35:55.405Z,7.07
2022-11-20T15:38:22.792Z,9.50
2022-11-20T15:40:50.419Z,6.30
2022-11-20T15:43:17.744Z,7.03
2022-11-20T15:45:48.667Z,4.73
2022-11-20T15:48:24.198Z,6.03
2022-11-20T15:51:35.166Z,7.00
2022-11-20T15:54:15.505Z,10.13
2022-11-20T15:56:43.102Z,7.60
2022-11-20T15:59:10.788Z,11.10
2022-11-20T16:01:38.289Z,9.00
2022-11-20T16:04:10.795Z,10.10
2022-11-20T16:06:38.343Z,10.43
2022-11-20T16:09:05.939Z,9.90
2022-11-20T16:11:33.703Z,13.40
2022-11-20T16:14:19.578Z,8.57
2022-11-20T16:16:47.244Z,8.17
2022-11-20T16:19:15.493Z,8.57
2022-11-20T16:21:43.631Z,9.13
2022-11-20T16:24:13.901Z,9.27
2022-11-20T16:26:42.032Z,7.43
2022-11-20T16:29:09.704Z,8.00
2022-11-20T16:31:37.442Z,6.63
2022-11-20T16:34:12.007Z,7.50
2022-11-20T16:36:44.637Z,6.23
2022-11-20T16:41:40.133Z,6.10
2022-11-20T16:44:10.664Z,6.93
2022-11-20T16:46:39.041Z,9.07
2022-11-20T16:49:13.954Z,6.43
2022-11-20T16:51:41.925Z,9.67
2022-11-20T16:54:10.475Z,8.57
2022-11-20T16:56:38.238Z,9.73
2022-11-20T16:59:05.961Z,7.93
2022-11-20T17:01:34.303Z,7.80
2022-11-20T17:04:04.095Z,9.00
2022-11-20T17:06:44.340Z,11.77
2022-11-20T17:09:11.741Z,14.57
2022-11-20T17:11:39.460Z,18.73
2022-11-20T17:14:07.558Z,20.97
2022-11-20T17:16:36.793Z,12.77
2022-11-20T17:19:05.437Z,24.63
2022-11-20T17:21:35.985Z,12.90
2022-11-20T17:24:05.478Z,19.17
2022-11-20T17:26:33.274Z,10.43
2022-11-20T17:29:07.207Z,11.50
2022-11-20T17:31:35.304Z,12.87
2022-11-20T17:34:02.882Z,10.00
2022-11-20T17:36:30.880Z,9.40
2022-11-20T17:38:58.771Z,6.40
2022-11-20T17:41:28.848Z,8.13
2022-11-20T17:43:58.566Z,9.60
2022-11-20T17:46:34.061Z,7.03
2022-11-20T17:49:02.289Z,7.60
2022-11-20T17:51:35.240Z,7.97
2022-11-20T17:54:04.997Z,7.93
2022-11-20T17:56:54.940Z,6.33
2022-11-20T17:59:22.879Z,10.73
2022-11-20T18:01:50.492Z,10.07
2022-11-20T18:04:18.212Z,9.30
2022-11-20T18:06:45.745Z,9.93
2022-11-20T18:09:13.427Z,6.13
2022-11-20T18:11:42.616Z,5.20
2022-11-20T18:14:36.081Z,8.77
2022-11-20T18:17:09.006Z,8.57
2022-11-20T18:19:44.944Z,8.40
2022-11-20T18:22:23.499Z,9.73
2022-11-20T18:24:50.833Z,8.03
2022-11-20T18:27:20.731Z,9.27
2022-11-20T18:29:51.796Z,10.23
2022-11-20T18:32:21.815Z,12.23
2022-11-20T18:34:49.345Z,8.03
2022-11-20T18:37:17.142Z,9.80
2022-11-20T18:39:44.490Z,8.40
2022-11-20T18:42:35.025Z,10.73
2022-11-20T18:45:04.509Z,8.63
2022-11-20T18:47:36.144Z,9.27
2022-11-20T18:50:06.995Z,9.15
2022-11-20T18:52:39.313Z,8.70
2022-11-20T18:55:08.268Z,10.03
2022-11-20T18:57:36.109Z,10.33
2022-11-20T19:00:09.225Z,13.10
2022-11-20T19:02:43.056Z,10.77
2022-11-20T19:05:15.166Z,10.33
2022-11-20T19:07:42.725Z,12.60
2022-11-20T19:10:10.664Z,10.57
2022-11-20T19:12:38.367Z,8.00
2022-11-20T19:15:06.368Z,11.97
2022-11-20T19:17:34.588Z,10.77
2022-11-20T19:20:02.186Z,9.47
2022-11-20T19:22:29.565Z,7.23
2022-11-20T19:24:56.922Z,9.70
2022-11-20T19:27:24.252Z,8.37
2022-11-20T19:29:51.665Z,9.97
2022-11-20T19:32:19.230Z,11.10
2022-11-20T19:34:46.543Z,10.47
2022-11-20T19:37:13.892Z,12.03
2022-11-20T19:39:41.695Z,11.30
2022-11-20T19:42:09.058Z,13.87
2022-11-20T19:44:36.403Z,10.27
2022-11-20T19:47:08.956Z,14.93
2022-11-20T19:49:41.721Z,15.93
2022-11-20T19:52:09.458Z,15.53
2022-11-20T19:54:36.941Z,13.67
2022-11-20T19:57:04.386Z,16.03
2022-11-20T19:59:31.839Z,9.77
2022-11-20T20:01:59.270Z,13.63
2022-11-20T20:04:27.191Z,12.33
2022-11-20T20:06:54.664Z,12.47
2022-11-20T20:09:23.758Z,14.80
2022-11-20T20:11:51.458Z,20.67
2022-11-20T20:14:19.229Z,19.67
2022-11-20T20:16:47.081Z,21.00
2022-11-20T20:19:15.819Z,14.83
2022-11-20T20:21:44.068Z,17.97
2022-11-20T20:24:12.242Z,16.13
2022-11-20T20:26:39.941Z,21.10
2022-11-20T20:29:07.323Z,23.50
2022-11-20T20:31:35.153Z,13.43
2022-11-20T20:34:03.438Z,17.70
2022-11-20T20:36:31.048Z,16.70
2022-11-20T20:38:59.773Z,18.27
2022-11-20T20:41:27.226Z,16.20
2022-11-20T20:44:13.322Z,15.43
2022-11-20T20:46:41.034Z,12.37
2022-11-20T20:49:08.460Z,15.27
2022-11-20T20:51:35.946Z,15.63
2022-11-20T20:54:03.817Z,14.17
2022-11-20T20:56:31.232Z,12.90
2022-11-20T20:58:58.596Z,9.53
2022-11-20T21:01:28.943Z,10.93
2022-11-20T21:03:57.434Z,13.02
2022-11-20T21:06:25.330Z,12.57
2022-11-20T21:08:53.031Z,11.07
2022-11-20T21:11:20.954Z,12.37
2022-11-20T21:13:48.995Z,11.97
2022-11-20T21:16:18.378Z,15.13
2022-11-20T21:18:46.179Z,13.00
2022-11-20T21:21:34.193Z,14.20
2022-11-20T21:24:02.490Z,13.63
2022-11-20T21:26:30.167Z,12.57
2022-11-20T21:28:58.136Z,12.60
2022-11-20T21:31:26.886Z,15.83
2022-11-20T21:33:55.940Z,12.37
2022-11-20T21:36:28.428Z,15.87
2022-11-20T21:38:56.923Z,12.33
2022-11-20T21:41:26.809Z,12.27
2022-11-20T21:44:29.144Z,14.83
2022-11-20T21:46:45.854Z,14.60
2022-11-20T21:49:14.698Z,12.13
2022-11-20T21:51:42.126Z,12.10
2022-11-20T21:54:10.803Z,9.10
2022-11-20T21:56:38.349Z,15.23
2022-11-20T21:59:05.765Z,14.70
2022-11-20T22:01:33.265Z,11.37
2022-11-20T22:04:02.357Z,15.23
2022-11-20T22:06:34.654Z,12.77
2022-11-20T22:09:03.558Z,11.97
2022-11-20T22:11:31.053Z,14.73
2022-11-20T22:14:17.039Z,11.60
2022-11-20T22:16:44.587Z,12.77
2022-11-20T22:19:12.198Z,11.97
2022-11-20T22:21:40.538Z,13.63
2022-11-20T22:24:12.068Z,11.67
2022-11-20T22:26:40.627Z,13.57
2022-11-20T22:29:13.540Z,14.47
2022-11-20T22:31:41.019Z,11.17
2022-11-20T22:34:12.466Z,14.87
2022-11-20T22:36:40.609Z,12.80
2022-11-20T22:39:08.183Z,10.37
2022-11-20T22:41:35.578Z,14.83
2022-11-20T22:44:05.335Z,18.23
2022-11-20T22:46:35.402Z,15.00
2022-11-20T22:49:05.405Z,14.40
2022-11-20T22:51:35.281Z,18.93
2022-11-20T22:54:03.708Z,14.03
2022-11-20T22:56:31.871Z,10.67
2022-11-20T22:58:59.237Z,14.37
2022-11-20T23:01:31.727Z,15.57
2022-11-20T23:04:01.199Z,11.57
2022-11-20T23:06:29.353Z,13.67
2022-11-20T23:08:57.067Z,16.53
2022-11-20T23:11:29.735Z,13.03
2022-11-20T23:13:59.525Z,14.90
2022-11-20T23:16:29.403Z,13.93
2022-11-20T23:19:01.995Z,14.00
2022-11-20T23:21:30.091Z,15.03
2022-11-20T23:23:58.787Z,16.50
2022-11-20T23:26:33.208Z,14.50
2022-11-20T23:29:01.229Z,16.57
2022-11-20T23:31:30.984Z,16.83
2022-11-20T23:33:59.544Z,18.67
2022-11-20T23:36:27.052Z,15.10
2022-11-20T23:38:54.416Z,18.83
2022-11-20T23:41:21.795Z,22.93
2022-11-20T23:43:49.085Z,21.27
2022-11-20T23:46:17.096Z,16.80
2022-11-20T23:48:45.681Z,13.37
2022-11-20T23:51:14.143Z,16.80
2022-11-20T23:53:41.556Z,17.20
2022-11-20T23:56:09.009Z,22.00
2022-11-20T23:58:38.227Z,22.00
